createdAt,value
2018-08-04T07:17:44.066Z,982.88
2018-08-04T07:18:44.025Z,983.08
2018-08-04T07:19:44.015Z,983.17
2018-08-04T07:20:44.003Z,983.20
2018-08-04T07:21:43.993Z,983.15
2018-08-04T07:22:43.981Z,983.17
2018-08-04T07:23:43.976Z,983.15
2018-08-04T07:24:43.960Z,983.14
2018-08-04T07:25:43.948Z,983.14
2018-08-04T07:26:43.937Z,983.15
2018-08-04T07:27:43.927Z,983.14
2018-08-04T07:28:43.914Z,983.11
2018-08-04T07:29:43.905Z,983.11
2018-08-04T07:30:43.894Z,983.09
2018-08-04T07:31:43.885Z,983.08
2018-08-04T07:32:43.873Z,983.08
2018-08-04T07:33:43.861Z,983.05
2018-08-04T07:34:43.851Z,983.03
2018-08-04T07:35:43.839Z,983.05
2018-08-04T07:36:43.828Z,983.08
2018-08-04T07:37:43.821Z,983.03
2018-08-04T07:38:43.807Z,983.05
2018-08-04T07:39:43.796Z,983.02
2018-08-04T07:40:43.785Z,983.00
2018-08-04T07:41:43.773Z,982.94
2018-08-04T07:42:43.761Z,982.96
2018-08-04T07:43:43.751Z,982.94
2018-08-04T07:44:43.739Z,982.96
2018-08-04T07:45:43.729Z,982.96
2018-08-04T07:46:43.717Z,982.96
2018-08-04T07:47:43.707Z,982.96
2018-08-04T07:48:43.695Z,982.96
2018-08-04T07:49:43.685Z,982.96
2018-08-04T07:50:43.674Z,982.96
2018-08-04T07:51:43.663Z,982.94
2018-08-04T07:52:43.650Z,982.94
2018-08-04T07:53:43.638Z,982.94
2018-08-04T07:54:43.629Z,982.96
2018-08-04T07:55:43.866Z,982.97
2018-08-04T07:56:43.609Z,982.97
2018-08-04T07:57:43.595Z,982.96
2018-08-04T07:58:43.583Z,982.97
2018-08-04T07:59:43.574Z,982.96
2018-08-04T08:00:43.575Z,982.91
2018-08-04T08:01:43.550Z,982.94
2018-08-04T08:02:43.539Z,982.94
2018-08-04T08:03:43.535Z,982.91
2018-08-04T08:04:43.519Z,982.96
2018-08-04T08:05:43.507Z,982.96
2018-08-04T08:06:43.496Z,982.97
2018-08-04T08:07:43.490Z,982.96
2018-08-04T08:08:43.472Z,982.94
2018-08-04T08:09:43.462Z,982.96
2018-08-04T08:10:43.562Z,982.97
2018-08-04T08:11:43.441Z,982.96
2018-08-04T08:12:43.428Z,982.94
2018-08-04T08:13:43.421Z,982.96
2018-08-04T08:14:43.407Z,982.94
2018-08-04T08:15:43.398Z,982.96
2018-08-04T08:16:43.386Z,982.97
2018-08-04T08:17:43.373Z,982.97
2018-08-04T08:18:43.386Z,982.96
2018-08-04T08:19:43.352Z,982.96
2018-08-04T08:20:43.341Z,982.96
2018-08-04T08:21:43.331Z,982.94
2018-08-04T08:22:43.319Z,982.97
2018-08-04T08:23:43.308Z,982.97
2018-08-04T08:24:43.301Z,982.96
2018-08-04T08:25:43.288Z,982.96
2018-08-04T08:26:43.277Z,982.94
2018-08-04T08:27:43.266Z,982.96
2018-08-04T08:28:43.253Z,982.97
2018-08-04T08:29:43.244Z,982.94
2018-08-04T08:30:43.233Z,982.94
2018-08-04T08:31:43.222Z,982.96
2018-08-04T08:32:43.232Z,982.94
2018-08-04T08:33:43.203Z,982.94
2018-08-04T08:34:43.197Z,982.94
2018-08-04T08:35:43.181Z,982.94
2018-08-04T08:36:43.169Z,982.91
2018-08-04T08:37:43.158Z,982.96
2018-08-04T08:38:43.147Z,982.96
2018-08-04T08:39:43.135Z,982.96
2018-08-04T08:40:43.125Z,982.94
2018-08-04T08:41:43.115Z,982.94
2018-08-04T08:42:43.106Z,982.96
2018-08-04T08:43:43.094Z,982.94
2018-08-04T08:44:43.082Z,982.94
2018-08-04T08:45:43.071Z,982.96
2018-08-04T08:46:43.063Z,982.96
2018-08-04T08:47:43.048Z,982.96
2018-08-04T08:48:43.039Z,982.94
2018-08-04T08:49:43.029Z,982.94
2018-08-04T08:50:43.019Z,982.96
2018-08-04T08:51:43.007Z,982.94
2018-08-04T08:52:42.996Z,982.94
2018-08-04T08:53:43.128Z,982.91
2018-08-04T08:54:42.976Z,982.91
2018-08-04T08:55:42.965Z,982.90
2018-08-04T08:56:42.954Z,982.90
2018-08-04T08:57:42.948Z,982.94
2018-08-04T08:58:42.932Z,982.90
2018-08-04T08:59:42.932Z,982.88
2018-08-04T09:00:42.915Z,982.85
2018-08-04T09:01:42.902Z,982.84
2018-08-04T09:02:42.888Z,982.84
2018-08-04T09:03:42.882Z,982.84
2018-08-04T09:04:42.868Z,982.80
2018-08-04T09:05:42.858Z,982.83
2018-08-04T09:06:42.858Z,982.85
2018-08-04T09:07:42.836Z,982.88
2018-08-04T09:08:42.880Z,982.85
2018-08-04T09:09:42.813Z,982.88
2018-08-04T09:10:42.805Z,982.90
2018-08-04T09:11:42.792Z,982.91
2018-08-04T09:12:42.781Z,982.91
2018-08-04T09:13:42.774Z,982.88
2018-08-04T09:14:42.759Z,982.88
2018-08-04T09:15:42.821Z,982.88
2018-08-04T09:16:42.739Z,982.88
2018-08-04T09:17:42.729Z,982.88
2018-08-04T09:18:42.717Z,982.90
2018-08-04T09:19:42.731Z,982.88
2018-08-04T09:20:42.695Z,982.90
2018-08-04T09:21:42.686Z,982.90
2018-08-04T09:22:42.675Z,982.90
2018-08-04T09:23:42.666Z,982.90
2018-08-04T09:24:42.654Z,982.96
2018-08-04T09:25:42.644Z,982.97
2018-08-04T09:26:42.633Z,982.97
2018-08-04T09:27:42.621Z,982.97
2018-08-04T09:28:42.615Z,982.96
2018-08-04T09:29:42.602Z,982.94
2018-08-04T09:30:42.593Z,982.90
2018-08-04T09:31:42.580Z,982.88
2018-08-04T09:32:42.570Z,982.88
2018-08-04T09:33:42.557Z,982.91
2018-08-04T09:34:42.546Z,982.94
2018-08-04T09:35:42.536Z,982.96
2018-08-04T09:36:42.527Z,982.96
2018-08-04T09:37:42.538Z,982.96
2018-08-04T09:38:42.504Z,982.96
2018-08-04T09:39:42.494Z,982.94
2018-08-04T09:40:42.487Z,982.94
2018-08-04T09:41:42.471Z,982.96
2018-08-04T09:42:42.461Z,983.00
2018-08-04T09:43:42.450Z,982.97
2018-08-04T09:44:42.499Z,982.96
2018-08-04T09:45:42.429Z,982.96
2018-08-04T09:46:42.422Z,982.94
2018-08-04T09:47:42.408Z,982.96
2018-08-04T09:48:42.397Z,982.94
2018-08-04T09:49:42.386Z,982.97
2018-08-04T09:50:42.378Z,982.94
2018-08-04T09:51:42.366Z,982.94
2018-08-04T09:52:42.354Z,982.91
2018-08-04T09:53:42.344Z,982.94
2018-08-04T09:54:42.334Z,982.97
2018-08-04T09:55:42.343Z,982.94
2018-08-04T09:56:42.312Z,982.96
2018-08-04T09:57:42.307Z,982.94
2018-08-04T09:58:42.290Z,982.94
2018-08-04T09:59:42.306Z,982.96
2018-08-04T10:00:42.281Z,982.94
2018-08-04T10:01:42.268Z,982.94
2018-08-04T10:02:42.248Z,982.90
2018-08-04T10:03:42.238Z,982.94
2018-08-04T10:04:42.227Z,982.94
2018-08-04T10:05:42.216Z,982.94
2018-08-04T10:06:42.205Z,983.00
2018-08-04T10:07:42.196Z,983.00
2018-08-04T10:08:42.183Z,983.02
2018-08-04T10:09:42.174Z,983.00
2018-08-04T10:10:42.165Z,983.03
2018-08-04T10:11:42.152Z,983.03
2018-08-04T10:12:42.141Z,983.02
2018-08-04T10:13:42.130Z,983.00
2018-08-04T10:14:42.119Z,982.97
2018-08-04T10:15:42.113Z,983.00
2018-08-04T10:16:42.105Z,982.97
2018-08-04T10:17:42.085Z,982.94
2018-08-04T10:18:42.078Z,982.96
2018-08-04T10:19:42.091Z,982.96
2018-08-04T10:20:42.055Z,982.96
2018-08-04T10:21:42.044Z,982.97
2018-08-04T10:22:42.034Z,982.97
2018-08-04T10:23:42.028Z,983.00
2018-08-04T10:24:42.011Z,982.97
2018-08-04T10:25:42.002Z,982.94
2018-08-04T10:26:41.989Z,982.91
2018-08-04T10:27:41.980Z,982.90
2018-08-04T10:28:41.968Z,982.88
2018-08-04T10:29:41.958Z,982.88
2018-08-04T10:30:41.950Z,982.83
2018-08-04T10:31:41.935Z,982.83
2018-08-04T10:32:42.056Z,982.84
2018-08-04T10:33:41.916Z,982.83
2018-08-04T10:34:41.904Z,982.84
2018-08-04T10:35:41.901Z,982.83
2018-08-04T10:36:41.880Z,982.85
2018-08-04T10:37:41.875Z,982.85
2018-08-04T10:38:41.913Z,982.84
2018-08-04T10:39:41.848Z,982.83
2018-08-04T10:40:41.838Z,982.78
2018-08-04T10:41:41.826Z,982.83
2018-08-04T10:42:41.816Z,982.83
2018-08-04T10:43:41.806Z,982.80
2018-08-04T10:44:41.797Z,982.83
2018-08-04T10:45:41.785Z,982.78
2018-08-04T10:46:41.773Z,982.75
2018-08-04T10:47:41.765Z,982.75
2018-08-04T10:48:41.753Z,982.75
2018-08-04T10:49:41.741Z,982.71
2018-08-04T10:50:41.731Z,982.69
2018-08-04T10:51:41.720Z,982.69
2018-08-04T10:52:41.710Z,982.66
2018-08-04T10:53:41.698Z,982.66
2018-08-04T10:54:41.689Z,982.71
2018-08-04T10:55:41.680Z,982.69
2018-08-04T10:56:41.669Z,982.69
2018-08-04T10:57:41.655Z,982.71
2018-08-04T10:58:41.645Z,982.66
2018-08-04T10:59:41.636Z,982.69
2018-08-04T11:00:41.647Z,982.69
2018-08-04T11:01:41.615Z,982.69
2018-08-04T11:02:41.603Z,982.66
2018-08-04T11:03:41.593Z,982.69
2018-08-04T11:04:41.580Z,982.71
2018-08-04T11:05:41.570Z,982.72
2018-08-04T11:06:41.560Z,982.75
2018-08-04T11:07:41.552Z,982.75
2018-08-04T11:08:41.538Z,982.75
2018-08-04T11:09:41.527Z,982.75
2018-08-04T11:10:41.516Z,982.75
2018-08-04T11:11:41.511Z,982.69
2018-08-04T11:12:41.536Z,982.66
2018-08-04T11:13:41.488Z,982.66
2018-08-04T11:14:41.473Z,982.66
2018-08-04T11:15:41.464Z,982.66
2018-08-04T11:16:41.450Z,982.60
2018-08-04T11:17:41.441Z,982.63
2018-08-04T11:18:41.430Z,982.59
2018-08-04T11:19:41.420Z,982.59
2018-08-04T11:20:41.432Z,982.57
2018-08-04T11:21:41.397Z,982.57
2018-08-04T11:22:41.386Z,982.54
2018-08-04T11:23:41.375Z,982.59
2018-08-04T11:24:41.365Z,982.57
2018-08-04T11:25:41.355Z,982.54
2018-08-04T11:26:41.342Z,982.53
2018-08-04T11:27:41.332Z,982.51
2018-08-04T11:28:41.322Z,982.48
2018-08-04T11:29:41.310Z,982.53
2018-08-04T11:30:41.305Z,982.51
2018-08-04T11:31:41.288Z,982.48
2018-08-04T11:32:41.278Z,982.51
2018-08-04T11:33:41.267Z,982.46
2018-08-04T11:34:41.258Z,982.45
2018-08-04T11:35:41.245Z,982.42
2018-08-04T11:36:41.236Z,982.42
2018-08-04T11:37:41.275Z,982.45
2018-08-04T11:38:41.212Z,982.45
2018-08-04T11:39:41.204Z,982.51
2018-08-04T11:40:41.196Z,982.46
2018-08-04T11:41:41.179Z,982.45
2018-08-04T11:42:41.173Z,982.45
2018-08-04T11:43:41.159Z,982.45
2018-08-04T11:44:41.148Z,982.40
2018-08-04T11:45:41.141Z,982.42
2018-08-04T11:46:41.129Z,982.40
2018-08-04T11:47:41.116Z,982.36
2018-08-04T11:48:41.103Z,982.36
2018-08-04T11:49:41.099Z,982.40
2018-08-04T11:50:41.083Z,982.39
2018-08-04T11:51:41.164Z,982.40
2018-08-04T11:52:41.061Z,982.40
2018-08-04T11:53:41.053Z,982.36
2018-08-04T11:54:41.040Z,982.36
2018-08-04T11:55:41.030Z,982.36
2018-08-04T11:56:41.019Z,982.34
2018-08-04T11:57:41.012Z,982.36
2018-08-04T11:58:40.995Z,982.34
2018-08-04T11:59:40.985Z,982.34
2018-08-04T12:00:40.980Z,982.33
2018-08-04T12:01:40.964Z,982.34
2018-08-04T12:02:40.956Z,982.36
2018-08-04T12:03:40.942Z,982.36
2018-08-04T12:04:40.930Z,982.39
2018-08-04T12:05:40.923Z,982.40
2018-08-04T12:06:40.916Z,982.40
2018-08-04T12:07:40.899Z,982.39
2018-08-04T12:08:40.889Z,982.39
2018-08-04T12:09:40.878Z,982.34
2018-08-04T12:10:40.870Z,982.36
2018-08-04T12:11:40.855Z,982.34
2018-08-04T12:12:40.844Z,982.34
2018-08-04T12:13:40.834Z,982.34
2018-08-04T12:14:40.821Z,982.32
2018-08-04T12:15:40.812Z,982.34
2018-08-04T12:16:40.801Z,982.33
2018-08-04T12:17:40.791Z,982.32
2018-08-04T12:18:40.780Z,982.32
2018-08-04T12:19:40.769Z,982.33
2018-08-04T12:20:40.761Z,982.34
2018-08-04T12:21:40.775Z,982.34
2018-08-04T12:22:40.743Z,982.29
2018-08-04T12:23:40.725Z,982.21
2018-08-04T12:24:40.715Z,982.21
2018-08-04T12:25:40.789Z,982.32
2018-08-04T12:26:40.693Z,982.33
2018-08-04T12:27:40.680Z,982.32
2018-08-04T12:28:40.671Z,982.29
2018-08-04T12:29:40.661Z,982.21
2018-08-04T12:30:40.650Z,982.16
2018-08-04T12:31:40.641Z,982.16
2018-08-04T12:32:40.630Z,982.16
2018-08-04T12:33:40.619Z,982.11
2018-08-04T12:34:40.607Z,982.11
2018-08-04T12:35:40.598Z,982.09
2018-08-04T12:36:40.585Z,982.09
2018-08-04T12:37:40.577Z,982.08
2018-08-04T12:38:40.566Z,982.09
2018-08-04T12:39:40.554Z,982.08
2018-08-04T12:40:40.543Z,982.09
2018-08-04T12:41:40.537Z,982.05
2018-08-04T12:42:40.522Z,982.03
2018-08-04T12:43:40.530Z,982.03
2018-08-04T12:44:40.501Z,982.08
2018-08-04T12:45:40.490Z,982.09
2018-08-04T12:46:40.479Z,982.08
2018-08-04T12:47:40.469Z,982.08
2018-08-04T12:48:40.459Z,982.03
2018-08-04T12:49:40.448Z,982.03
2018-08-04T12:50:40.440Z,982.03
2018-08-04T12:51:40.428Z,982.02
2018-08-04T12:52:40.413Z,982.02
2018-08-04T12:53:40.404Z,982.00
2018-08-04T12:54:40.399Z,981.96
2018-08-04T12:55:40.382Z,981.97
2018-08-04T12:56:40.376Z,981.96
2018-08-04T12:57:40.362Z,981.94
2018-08-04T12:58:40.351Z,981.96
2018-08-04T12:59:40.349Z,981.91
2018-08-04T13:00:40.333Z,981.94
2018-08-04T13:01:40.345Z,981.94
2018-08-04T13:02:40.349Z,981.91
2018-08-04T13:03:40.298Z,981.88
2018-08-04T13:04:40.287Z,981.85
2018-08-04T13:05:40.277Z,981.84
2018-08-04T13:06:40.266Z,981.79
2018-08-04T13:07:40.257Z,981.79
2018-08-04T13:08:40.271Z,981.82
2018-08-04T13:09:40.232Z,981.84
2018-08-04T13:10:40.223Z,981.79
2018-08-04T13:11:40.216Z,981.79
2018-08-04T13:12:40.201Z,981.82
2018-08-04T13:13:40.190Z,981.82
2018-08-04T13:14:40.179Z,981.79
2018-08-04T13:15:40.169Z,981.82
2018-08-04T13:16:40.157Z,981.76
2018-08-04T13:17:40.147Z,981.70
2018-08-04T13:18:40.137Z,981.71
2018-08-04T13:19:40.126Z,981.76
2018-08-04T13:20:40.114Z,981.79
2018-08-04T13:21:40.129Z,981.82
2018-08-04T13:22:40.096Z,981.82
2018-08-04T13:23:40.084Z,981.82
2018-08-04T13:24:40.074Z,981.82
2018-08-04T13:25:40.061Z,981.78
2018-08-04T13:26:40.051Z,981.73
2018-08-04T13:27:40.045Z,981.78
2018-08-04T13:28:40.030Z,981.79
2018-08-04T13:29:40.083Z,981.78
2018-08-04T13:30:40.008Z,981.79
2018-08-04T13:31:39.997Z,981.79
2018-08-04T13:32:39.986Z,981.79
2018-08-04T13:33:39.977Z,981.78
2018-08-04T13:34:39.965Z,981.78
2018-08-04T13:35:39.954Z,981.76
2018-08-04T13:36:39.945Z,981.78
2018-08-04T13:37:39.953Z,981.73
2018-08-04T13:38:39.945Z,981.73
2018-08-04T13:39:39.914Z,981.76
2018-08-04T13:40:39.902Z,981.73
2018-08-04T13:41:39.892Z,981.73
2018-08-04T13:42:39.883Z,981.73
2018-08-04T13:43:39.892Z,981.73
2018-08-04T13:44:39.860Z,981.71
2018-08-04T13:45:39.849Z,981.71
2018-08-04T13:46:39.861Z,981.78
2018-08-04T13:47:39.828Z,981.73
2018-08-04T13:48:39.816Z,981.73
2018-08-04T13:49:39.807Z,981.76
2018-08-04T13:50:39.796Z,981.78
2018-08-04T13:51:39.786Z,981.79
2018-08-04T13:52:39.773Z,981.79
2018-08-04T13:53:39.762Z,981.79
2018-08-04T13:54:39.756Z,981.79
2018-08-04T13:55:39.741Z,981.76
2018-08-04T13:56:39.731Z,981.73
2018-08-04T13:57:39.718Z,981.76
2018-08-04T13:58:39.712Z,981.73
2018-08-04T13:59:39.733Z,981.70
2018-08-04T14:00:39.690Z,981.71
2018-08-04T14:01:39.677Z,981.71
2018-08-04T14:02:39.665Z,981.71
2018-08-04T14:03:39.655Z,981.70
2018-08-04T14:04:39.642Z,981.70
2018-08-04T14:05:39.634Z,981.67
2018-08-04T14:06:39.627Z,981.67
2018-08-04T14:07:39.611Z,981.66
2018-08-04T14:08:39.602Z,981.65
2018-08-04T14:09:39.632Z,981.65
2018-08-04T14:10:39.581Z,981.65
2018-08-04T14:11:39.569Z,981.63
2018-08-04T14:12:39.562Z,981.63
2018-08-04T14:13:39.548Z,981.60
2018-08-04T14:14:39.536Z,981.60
2018-08-04T14:15:39.525Z,981.60
2018-08-04T14:16:39.514Z,981.66
2018-08-04T14:17:39.504Z,981.65
2018-08-04T14:18:39.494Z,981.66
2018-08-04T14:19:39.487Z,981.66
2018-08-04T14:20:39.473Z,981.67
2018-08-04T14:21:39.462Z,981.70
2018-08-04T14:22:39.475Z,981.66
2018-08-04T14:23:39.442Z,981.66
2018-08-04T14:24:39.429Z,981.66
2018-08-04T14:25:39.420Z,981.67
2018-08-04T14:26:39.406Z,981.67
2018-08-04T14:27:39.398Z,981.67
2018-08-04T14:28:39.435Z,981.71
2018-08-04T14:29:39.374Z,981.70
2018-08-04T14:30:39.377Z,981.71
2018-08-04T14:31:39.354Z,981.67
2018-08-04T14:32:39.343Z,981.67
2018-08-04T14:33:39.330Z,981.65
2018-08-04T14:34:39.322Z,981.65
2018-08-04T14:35:39.310Z,981.65
2018-08-04T14:36:39.299Z,981.65
2018-08-04T14:37:39.290Z,981.63
2018-08-04T14:38:39.284Z,981.63
2018-08-04T14:39:39.268Z,981.65
2018-08-04T14:40:39.258Z,981.66
2018-08-04T14:41:39.245Z,981.65
2018-08-04T14:42:39.243Z,981.60
2018-08-04T14:43:39.223Z,981.57
2018-08-04T14:44:39.216Z,981.57
2018-08-04T14:45:39.202Z,981.59
2018-08-04T14:46:39.198Z,981.59
2018-08-04T14:47:39.180Z,981.57
2018-08-04T14:48:39.173Z,981.54
2018-08-04T14:49:39.228Z,981.53
2018-08-04T14:50:39.148Z,981.54
2018-08-04T14:51:39.135Z,981.53
2018-08-04T14:52:39.126Z,981.51
2018-08-04T14:53:39.266Z,981.54
2018-08-04T14:54:39.104Z,981.59
2018-08-04T14:55:39.095Z,981.59
2018-08-04T14:56:39.083Z,981.60
2018-08-04T14:57:39.073Z,981.60
2018-08-04T14:58:39.062Z,981.57
2018-08-04T14:59:39.058Z,981.59
2018-08-04T15:00:39.043Z,981.59
2018-08-04T15:01:39.028Z,981.57
2018-08-04T15:02:39.018Z,981.54
2018-08-04T15:03:39.010Z,981.54
2018-08-04T15:04:39.027Z,981.57
2018-08-04T15:05:38.985Z,981.54
2018-08-04T15:06:38.977Z,981.51
2018-08-04T15:07:38.962Z,981.51
2018-08-04T15:08:38.955Z,981.51
2018-08-04T15:09:38.942Z,981.54
2018-08-04T15:10:38.930Z,981.57
2018-08-04T15:11:38.919Z,981.57
2018-08-04T15:12:38.909Z,981.57
2018-08-04T15:13:38.898Z,981.59
2018-08-04T15:14:38.888Z,981.57
2018-08-04T15:15:38.894Z,981.54
2018-08-04T15:16:38.866Z,981.53
2018-08-04T15:17:38.857Z,981.48
2018-08-04T15:18:38.845Z,981.46
2018-08-04T15:19:38.833Z,981.45
2018-08-04T15:20:38.824Z,981.42
2018-08-04T15:21:38.848Z,981.40
2018-08-04T15:22:38.805Z,981.42
2018-08-04T15:23:38.817Z,981.40
2018-08-04T15:24:38.780Z,981.45
2018-08-04T15:25:38.769Z,981.45
2018-08-04T15:26:38.758Z,981.48
2018-08-04T15:27:38.756Z,981.46
2018-08-04T15:28:38.737Z,981.48
2018-08-04T15:29:38.729Z,981.51
2018-08-04T15:30:38.715Z,981.46
2018-08-04T15:31:38.705Z,981.53
2018-08-04T15:32:38.693Z,981.54
2018-08-04T15:33:38.683Z,981.53
2018-08-04T15:34:38.673Z,981.51
2018-08-04T15:35:38.660Z,981.48
2018-08-04T15:36:38.649Z,981.46
2018-08-04T15:37:38.640Z,981.46
2018-08-04T15:38:38.629Z,981.45
2018-08-04T15:39:38.620Z,981.48
2018-08-04T15:40:38.605Z,981.46
2018-08-04T15:41:38.594Z,981.46
2018-08-04T15:42:38.586Z,981.45
2018-08-04T15:43:38.575Z,981.45
2018-08-04T15:44:38.564Z,981.40
2018-08-04T15:45:38.553Z,981.40
2018-08-04T15:46:38.791Z,981.40
2018-08-04T15:47:38.530Z,981.42
2018-08-04T15:48:38.521Z,981.40
2018-08-04T15:49:38.510Z,981.40
2018-08-04T15:50:38.498Z,981.42
2018-08-04T15:51:38.488Z,981.39
2018-08-04T15:52:38.477Z,981.40
2018-08-04T15:53:38.466Z,981.39
2018-08-04T15:54:38.456Z,981.40
2018-08-04T15:55:38.445Z,981.39
2018-08-04T15:56:38.433Z,981.36
2018-08-04T15:57:38.423Z,981.36
2018-08-04T15:58:38.413Z,981.36
2018-08-04T15:59:38.401Z,981.39
2018-08-04T16:00:38.972Z,981.34
2018-08-04T16:01:38.380Z,981.36
2018-08-04T16:02:38.369Z,981.39
2018-08-04T16:03:38.357Z,981.42
2018-08-04T16:04:38.346Z,981.40
2018-08-04T16:05:38.335Z,981.39
2018-08-04T16:06:38.326Z,981.40
2018-08-04T16:07:38.321Z,981.39
2018-08-04T16:08:38.305Z,981.34
2018-08-04T16:09:38.295Z,981.34
2018-08-04T16:10:38.284Z,981.34
2018-08-04T16:11:38.271Z,981.34
2018-08-04T16:12:38.261Z,981.33
2018-08-04T16:13:38.247Z,981.34
2018-08-04T16:14:38.242Z,981.33
2018-08-04T16:15:38.228Z,981.30
2018-08-04T16:16:38.236Z,981.36
2018-08-04T16:17:38.205Z,981.33
2018-08-04T16:18:38.195Z,981.34
2018-08-04T16:19:38.184Z,981.33
2018-08-04T16:20:38.173Z,981.33
2018-08-04T16:21:38.167Z,981.34
2018-08-04T16:22:38.198Z,981.36
2018-08-04T16:23:38.169Z,981.34
2018-08-04T16:24:38.129Z,981.36
2018-08-04T16:25:38.120Z,981.36
2018-08-04T16:26:38.113Z,981.36
2018-08-04T16:27:38.098Z,981.40
2018-08-04T16:28:38.091Z,981.40
2018-08-04T16:29:38.076Z,981.40
2018-08-04T16:30:38.066Z,981.36
2018-08-04T16:31:38.055Z,981.36
2018-08-04T16:32:38.052Z,981.40
2018-08-04T16:33:38.033Z,981.40
2018-08-04T16:34:38.022Z,981.40
2018-08-04T16:35:38.013Z,981.42
2018-08-04T16:36:38.000Z,981.42
2018-08-04T16:37:37.991Z,981.42
2018-08-04T16:38:37.978Z,981.45
2018-08-04T16:39:37.967Z,981.46
2018-08-04T16:40:37.957Z,981.46
2018-08-04T16:41:37.970Z,981.51
2018-08-04T16:42:37.934Z,981.46
2018-08-04T16:43:37.925Z,981.46
2018-08-04T16:44:37.914Z,981.46
2018-08-04T16:45:37.904Z,981.48
2018-08-04T16:46:37.892Z,981.48
2018-08-04T16:47:37.882Z,981.53
2018-08-04T16:48:37.869Z,981.48
2018-08-04T16:49:37.860Z,981.51
2018-08-04T16:50:37.849Z,981.51
2018-08-04T16:51:37.837Z,981.48
2018-08-04T16:52:37.831Z,981.51
2018-08-04T16:53:37.815Z,981.54
2018-08-04T16:54:37.805Z,981.54
2018-08-04T16:55:37.794Z,981.57
2018-08-04T16:56:37.782Z,981.59
2018-08-04T16:57:37.772Z,981.54
2018-08-04T16:58:37.764Z,981.54
2018-08-04T16:59:37.751Z,981.57
2018-08-04T17:00:37.870Z,981.59
2018-08-04T17:01:37.730Z,981.59
2018-08-04T17:02:37.720Z,981.57
2018-08-04T17:03:37.708Z,981.60
2018-08-04T17:04:37.697Z,981.59
2018-08-04T17:05:37.690Z,981.60
2018-08-04T17:06:37.734Z,981.60
2018-08-04T17:07:37.664Z,981.57
2018-08-04T17:08:37.654Z,981.57
2018-08-04T17:09:37.645Z,981.57
2018-08-04T17:10:37.634Z,981.54
2018-08-04T17:11:37.620Z,981.53
2018-08-04T17:12:37.613Z,981.53
2018-08-04T17:13:37.599Z,981.53
2018-08-04T17:14:37.589Z,981.59
2018-08-04T17:15:37.578Z,981.57
2018-08-04T17:16:37.569Z,981.59
2018-08-04T17:17:37.556Z,981.59
2018-08-04T17:18:37.546Z,981.57
2018-08-04T17:19:37.537Z,981.60
2018-08-04T17:20:37.524Z,981.57
2018-08-04T17:21:37.517Z,981.59
2018-08-04T17:22:37.503Z,981.59
2018-08-04T17:23:37.491Z,981.57
2018-08-04T17:24:37.506Z,981.63
2018-08-04T17:25:37.471Z,981.60
2018-08-04T17:26:37.459Z,981.60
2018-08-04T17:27:37.448Z,981.63
2018-08-04T17:28:37.461Z,981.63
2018-08-04T17:29:37.427Z,981.65
2018-08-04T17:30:37.418Z,981.65
2018-08-04T17:31:37.405Z,981.65
2018-08-04T17:32:37.642Z,981.67
2018-08-04T17:33:37.386Z,981.67
2018-08-04T17:34:37.372Z,981.71
2018-08-04T17:35:37.359Z,981.71
2018-08-04T17:36:37.348Z,981.73
2018-08-04T17:37:37.385Z,981.78
2018-08-04T17:38:37.328Z,981.78
2018-08-04T17:39:37.316Z,981.78
2018-08-04T17:40:37.304Z,981.79
2018-08-04T17:41:37.294Z,981.79
2018-08-04T17:42:37.282Z,981.84
2018-08-04T17:43:37.270Z,981.84
2018-08-04T17:44:37.296Z,981.85
2018-08-04T17:45:37.252Z,981.85
2018-08-04T17:46:37.236Z,981.85
2018-08-04T17:47:37.228Z,981.88
2018-08-04T17:48:37.218Z,981.90
2018-08-04T17:49:37.203Z,981.88
2018-08-04T17:50:37.194Z,981.88
2018-08-04T17:51:37.183Z,981.88
2018-08-04T17:52:37.178Z,981.88
2018-08-04T17:53:37.159Z,981.90
2018-08-04T17:54:37.148Z,981.90
2018-08-04T17:55:37.138Z,981.96
2018-08-04T17:56:37.129Z,981.94
2018-08-04T17:57:37.116Z,981.90
2018-08-04T17:58:37.116Z,981.88
2018-08-04T17:59:37.093Z,981.90
2018-08-04T18:00:37.081Z,981.90
2018-08-04T18:01:37.075Z,981.94
2018-08-04T18:02:37.311Z,981.94
2018-08-04T18:03:37.050Z,981.96
2018-08-04T18:04:37.039Z,981.91
2018-08-04T18:05:37.030Z,981.94
2018-08-04T18:06:37.017Z,981.91
2018-08-04T18:07:37.008Z,981.91
2018-08-04T18:08:37.001Z,981.91
2018-08-04T18:09:36.987Z,981.96
2018-08-04T18:10:36.975Z,981.96
2018-08-04T18:11:36.963Z,981.96
2018-08-04T18:12:36.953Z,981.96
2018-08-04T18:13:36.953Z,981.94
2018-08-04T18:14:36.933Z,981.91
2018-08-04T18:15:36.924Z,981.94
2018-08-04T18:16:36.912Z,981.94
2018-08-04T18:17:36.900Z,981.94
2018-08-04T18:18:36.888Z,981.97
2018-08-04T18:19:36.879Z,981.94
2018-08-04T18:20:36.867Z,981.96
2018-08-04T18:21:36.856Z,981.94
2018-08-04T18:22:36.846Z,981.96
2018-08-04T18:23:36.835Z,981.96
2018-08-04T18:24:36.828Z,981.97
2018-08-04T18:25:36.841Z,981.96
2018-08-04T18:26:36.804Z,981.97
2018-08-04T18:27:36.792Z,982.00
2018-08-04T18:28:36.781Z,982.02
2018-08-04T18:29:36.863Z,982.05
2018-08-04T18:30:36.760Z,982.02
2018-08-04T18:31:36.749Z,982.03
2018-08-04T18:32:36.738Z,982.05
2018-08-04T18:33:36.726Z,982.05
2018-08-04T18:34:36.735Z,982.08
2018-08-04T18:35:36.707Z,982.09
2018-08-04T18:36:36.698Z,982.09
2018-08-04T18:37:36.685Z,982.11
2018-08-04T18:38:36.827Z,982.11
2018-08-04T18:39:36.664Z,982.14
2018-08-04T18:40:36.652Z,982.15
2018-08-04T18:41:36.641Z,982.19
2018-08-04T18:42:36.634Z,982.19
2018-08-04T18:43:36.624Z,982.21
2018-08-04T18:44:36.660Z,982.21
2018-08-04T18:45:36.597Z,982.21
2018-08-04T18:46:36.586Z,982.29
2018-08-04T18:47:36.575Z,982.29
2018-08-04T18:48:36.566Z,982.34
2018-08-04T18:49:36.554Z,982.34
2018-08-04T18:50:36.542Z,982.36
2018-08-04T18:51:36.531Z,982.39
2018-08-04T18:52:36.519Z,982.39
2018-08-04T18:53:36.510Z,982.39
2018-08-04T18:54:36.498Z,982.40
2018-08-04T18:55:36.486Z,982.42
2018-08-04T18:56:36.475Z,982.42
2018-08-04T18:57:36.466Z,982.42
2018-08-04T18:58:36.454Z,982.42
2018-08-04T18:59:36.443Z,982.40
2018-08-04T19:00:36.437Z,982.45
2018-08-04T19:01:36.422Z,982.48
2018-08-04T19:02:36.410Z,982.48
2018-08-04T19:03:36.398Z,982.51
2018-08-04T19:04:36.389Z,982.51
2018-08-04T19:05:36.382Z,982.51
2018-08-04T19:06:36.370Z,982.53
2018-08-04T19:07:36.356Z,982.54
2018-08-04T19:08:36.346Z,982.54
2018-08-04T19:09:36.332Z,982.54
2018-08-04T19:10:36.322Z,982.54
2018-08-04T19:11:36.311Z,982.57
2018-08-04T19:12:36.300Z,982.57
2018-08-04T19:13:36.289Z,982.54
2018-08-04T19:14:36.277Z,982.54
2018-08-04T19:15:36.267Z,982.59
2018-08-04T19:16:36.255Z,982.59
2018-08-04T19:17:36.245Z,982.54
2018-08-04T19:18:36.233Z,982.57
2018-08-04T19:19:36.223Z,982.57
2018-08-04T19:20:36.212Z,982.59
2018-08-04T19:21:36.204Z,982.60
2018-08-04T19:22:36.189Z,982.59
2018-08-04T19:23:36.179Z,982.59
2018-08-04T19:24:36.174Z,982.63
2018-08-04T19:25:36.181Z,982.65
2018-08-04T19:26:36.144Z,982.65
2018-08-04T19:27:36.135Z,982.66
2018-08-04T19:28:36.186Z,982.66
2018-08-04T19:29:36.113Z,982.65
2018-08-04T19:30:36.102Z,982.69
2018-08-04T19:31:36.089Z,982.69
2018-08-04T19:32:36.081Z,982.66
2018-08-04T19:33:36.067Z,982.71
2018-08-04T19:34:36.056Z,982.71
2018-08-04T19:35:36.045Z,982.69
2018-08-04T19:36:36.035Z,982.69
2018-08-04T19:37:36.025Z,982.72
2018-08-04T19:38:36.011Z,982.71
2018-08-04T19:39:36.002Z,982.71
2018-08-04T19:40:35.989Z,982.72
